Time;durP1;ratioP1;P1;durP2;ratioP2;P2;SDS_P1;SDS_P2;PMS_P1;PMS_P2;Temp;Humidity;BMP_temperature;BMP_pressure;BME280_temperature;BME280_humidity;BME280_pressure;Samples;Min_cycle;Max_cycle;Signal;HPM_P1;HPM_P2
2022/03/21 00:01:04;;;;;;;17.27;11.70;;;;;;;6.40;44.29;103425.75;5044641;28;20713;-74
2022/03/21 00:03:30;;;;;;;17.07;12.33;;;;;;;6.43;43.87;103425.09;5037905;28;20178;-75
2022/03/21 00:05:57;;;;;;;15.43;11.13;;;;;;;6.37;44.62;103422.97;5038571;28;21656;-75
2022/03/21 00:08:24;;;;;;;17.47;11.97;;;;;;;6.36;44.35;103423.72;5045995;28;20276;-75
2022/03/21 00:10:51;;;;;;;17.37;11.63;;;;;;;6.32;44.75;103431.91;5044343;28;20186;-75
2022/03/21 00:13:16;;;;;;;16.90;12.17;;;;;;;6.31;44.72;103431.78;5040530;28;20194;-75
2022/03/21 00:15:44;;;;;;;14.80;11.43;;;;;;;6.22;44.99;103426.84;5037578;28;20208;-75
2022/03/21 00:18:13;;;;;;;17.60;12.40;;;;;;;6.26;44.33;103435.63;5038724;28;20178;-74
2022/03/21 00:20:50;;;;;;;15.87;11.63;;;;;;;6.23;44.38;103435.38;5045389;28;20186;-74
2022/03/21 00:23:17;;;;;;;15.77;11.17;;;;;;;6.21;44.03;103437.81;5041061;28;20189;-75
2022/03/21 00:25:43;;;;;;;16.23;11.83;;;;;;;6.22;44.42;103433.63;5038718;28;20206;-74
2022/03/21 00:28:09;;;;;;;15.87;11.63;;;;;;;6.20;44.57;103424.97;5041231;28;20247;-74
2022/03/21 00:30:36;;;;;;;16.60;11.47;;;;;;;6.14;44.67;103421.94;5040348;28;20194;-74
2022/03/21 00:33:02;;;;;;;14.57;10.73;;;;;;;6.13;44.88;103431.22;5035781;28;20197;-74
2022/03/21 00:35:28;;;;;;;16.60;11.20;;;;;;;6.13;44.58;103431.22;5038747;28;20241;-75
2022/03/21 00:37:55;;;;;;;15.63;11.10;;;;;;;6.08;44.49;103437.59;5038147;28;20237;-74
2022/03/21 00:40:20;;;;;;;16.23;11.43;;;;;;;6.08;44.82;103439.28;5038033;28;20193;-74
2022/03/21 00:42:49;;;;;;;16.77;11.47;;;;;;;6.04;45.49;103427.09;5038801;28;20269;-75
2022/03/21 00:45:17;;;;;;;16.93;11.30;;;;;;;6.02;45.07;103431.16;5033554;28;20218;-75
2022/03/21 00:47:44;;;;;;;17.60;12.07;;;;;;;5.97;44.92;103442.59;5035723;28;20186;-74
2022/03/21 00:50:15;;;;;;;17.70;11.07;;;;;;;5.92;45.36;103449.00;5039510;28;20777;-75
2022/03/21 00:52:46;;;;;;;15.80;11.17;;;;;;;5.86;45.50;103438.34;5038125;28;20713;-74
2022/03/21 00:55:13;;;;;;;16.23;11.37;;;;;;;5.81;45.86;103442.16;5037435;28;20326;-75
2022/03/21 00:57:40;;;;;;;16.00;11.50;;;;;;;5.78;45.83;103445.31;5038063;28;20212;-75
2022/03/21 01:00:10;;;;;;;15.37;11.43;;;;;;;5.77;45.85;103446.09;5036878;28;20217;-74
2022/03/21 01:02:36;;;;;;;15.10;11.27;;;;;;;5.76;46.16;103430.72;5035606;28;20190;-75
2022/03/21 01:05:02;;;;;;;15.80;11.60;;;;;;;5.72;46.62;103442.31;5038123;28;20228;-75
2022/03/21 01:07:28;;;;;;;17.20;11.60;;;;;;;5.74;46.46;103437.31;5037538;28;20198;-74
2022/03/21 01:09:54;;;;;;;18.33;10.83;;;;;;;5.72;46.25;103438.84;5036013;28;20285;-75
2022/03/21 01:12:19;;;;;;;16.73;11.27;;;;;;;5.59;46.78;103429.38;5045874;28;20202;-75
2022/03/21 01:14:44;;;;;;;18.63;12.63;;;;;;;5.57;46.97;103435.97;5041516;28;20212;-75
2022/03/21 01:17:10;;;;;;;19.50;12.03;;;;;;;5.59;46.73;103437.00;5035182;28;20187;-74
2022/03/21 01:19:35;;;;;;;16.37;11.00;;;;;;;5.55;46.94;103437.50;5035933;28;20197;-74
2022/03/21 01:22:00;;;;;;;14.60;10.60;;;;;;;5.56;46.66;103443.44;5044505;28;20190;-74
2022/03/21 01:24:26;;;;;;;16.70;11.40;;;;;;;5.55;46.44;103442.59;5041963;28;20213;-74
2022/03/21 01:26:51;;;;;;;16.53;10.73;;;;;;;5.51;47.04;103437.13;5027993;28;20214;-74
2022/03/21 01:29:17;;;;;;;14.47;11.40;;;;;;;5.52;46.79;103441.47;5030609;28;20194;-74
2022/03/21 01:31:42;;;;;;;16.33;11.67;;;;;;;5.55;46.17;103442.59;5047777;28;20716;-74
2022/03/21 01:34:08;;;;;;;17.17;11.17;;;;;;;5.51;46.72;103448.19;5045173;28;20217;-74
2022/03/21 01:36:33;;;;;;;17.67;11.73;;;;;;;5.46;46.85;103451.09;5027959;28;20222;-76
2022/03/21 01:38:58;;;;;;;14.90;10.80;;;;;;;5.43;46.91;103453.41;5038292;28;20189;-74
2022/03/21 01:41:24;;;;;;;15.47;11.23;;;;;;;5.43;46.25;103446.66;5034141;28;20193;-74
2022/03/21 01:44:01;;;;;;;16.00;10.90;;;;;;;5.38;46.83;103447.94;5045642;28;20667;-76
2022/03/21 01:46:27;;;;;;;15.33;11.17;;;;;;;5.38;46.53;103453.03;5032667;28;20213;-76
2022/03/21 01:48:53;;;;;;;13.73;10.60;;;;;;;5.38;47.28;103453.03;5047258;28;20591;-76
2022/03/21 01:51:19;;;;;;;15.27;11.10;;;;;;;5.35;47.52;103450.22;5047645;28;20273;-76
2022/03/21 01:56:29;;;;;;;13.50;10.33;;;;;;;5.32;47.55;103447.44;5033162;28;20202;-76
2022/03/21 01:58:55;;;;;;;16.27;11.70;;;;;;;5.32;46.83;103449.97;5031907;28;20186;-76
2022/03/21 02:01:20;;;;;;;15.17;11.37;;;;;;;5.36;47.17;103459.63;5032748;28;20286;-76
2022/03/21 02:03:45;;;;;;;15.40;10.70;;;;;;;5.31;46.98;103453.28;5033284;28;20198;-76
2022/03/21 02:06:11;;;;;;;14.13;10.80;;;;;;;5.30;47.53;103453.16;5033962;28;20275;-76
2022/03/21 02:08:37;;;;;;;16.57;11.10;;;;;;;5.22;47.92;103450.00;5031240;28;20205;-76
2022/03/21 02:11:03;;;;;;;15.87;11.40;;;;;;;5.21;47.54;103445.66;5056899;28;20185;-76
2022/03/21 02:13:29;;;;;;;14.23;10.57;;;;;;;5.19;47.37;103443.75;5071421;28;20701;-76
2022/03/21 02:15:54;;;;;;;15.87;11.67;;;;;;;5.16;47.51;103446.94;5032802;28;20294;-76
2022/03/21 02:18:20;;;;;;;16.63;10.93;;;;;;;5.15;47.54;103446.84;5038557;28;20193;-76
2022/03/21 02:20:47;;;;;;;14.53;10.83;;;;;;;5.16;47.49;103438.44;5064796;28;20177;-76
2022/03/21 02:23:20;;;;;;;16.97;11.87;;;;;;;5.13;47.58;103438.19;5058781;28;20269;-76
2022/03/21 02:25:46;;;;;;;14.37;10.63;;;;;;;5.12;47.75;103441.50;5034932;28;20403;-76
2022/03/21 02:28:15;;;;;;;15.97;10.93;;;;;;;5.10;47.32;103437.91;5031085;28;20206;-76
2022/03/21 02:30:44;;;;;;;16.60;10.90;;;;;;;5.08;47.45;103430.19;5047290;28;20189;-76
2022/03/21 02:33:11;;;;;;;16.97;11.63;;;;;;;5.04;47.71;103427.25;5037574;28;20195;-76
2022/03/21 02:35:36;;;;;;;17.17;10.50;;;;;;;5.03;47.17;103428.03;5032137;28;20229;-76
2022/03/21 02:38:02;;;;;;;15.60;11.30;;;;;;;4.98;47.80;103426.75;5051470;28;20185;-76
2022/03/21 02:40:28;;;;;;;15.37;11.50;;;;;;;4.96;47.52;103428.28;5034155;28;20209;-76
2022/03/21 02:42:54;;;;;;;14.33;10.50;;;;;;;4.90;47.72;103432.84;5038154;28;20198;-77
2022/03/21 02:45:20;;;;;;;15.97;11.07;;;;;;;4.90;48.15;103438.81;5032367;28;20206;-76
2022/03/21 02:47:45;;;;;;;15.20;10.93;;;;;;;4.85;48.36;103451.88;5032197;28;20731;-76
2022/03/21 02:50:23;;;;;;;16.83;11.27;;;;;;;4.73;48.50;103451.75;5038341;28;20198;-76
2022/03/21 02:52:50;;;;;;;14.50;10.43;;;;;;;4.74;49.29;103456.03;5051019;28;20200;-76
2022/03/21 02:55:15;;;;;;;16.67;11.03;;;;;;;4.77;48.42;103453.78;5042769;28;20233;-76
2022/03/21 02:57:41;;;;;;;15.67;10.87;;;;;;;4.70;48.46;103454.00;5051674;28;20201;-76
2022/03/21 03:00:07;;;;;;;16.73;10.40;;;;;;;4.68;48.63;103454.63;5039075;28;20202;-76
2022/03/21 03:02:32;;;;;;;18.83;11.03;;;;;;;4.67;48.66;103460.47;5030346;28;20195;-76
2022/03/21 03:04:57;;;;;;;14.43;10.73;;;;;;;4.60;49.19;103450.59;5041241;28;20213;-76
2022/03/21 03:07:23;;;;;;;14.70;11.20;;;;;;;4.57;49.29;103453.75;5038552;28;20191;-76
2022/03/21 03:09:48;;;;;;;16.17;11.40;;;;;;;4.55;49.63;103456.91;5032462;28;20327;-76
2022/03/21 03:12:13;;;;;;;14.47;10.87;;;;;;;4.55;49.97;103462.00;5055094;28;20532;-76
2022/03/21 03:14:39;;;;;;;17.63;11.13;;;;;;;4.51;49.98;103458.28;5051308;28;20636;-76
2022/03/21 03:17:06;;;;;;;19.27;11.80;;;;;;;4.46;49.88;103458.66;5049636;28;20671;-76
2022/03/21 03:19:31;;;;;;;16.83;11.53;;;;;;;4.37;50.66;103462.94;5031873;28;20560;-76
2022/03/21 03:21:57;;;;;;;15.90;11.37;;;;;;;4.26;51.02;103463.66;5034154;28;20190;-76
2022/03/21 03:24:25;;;;;;;15.67;11.33;;;;;;;4.28;50.06;103454.56;5037093;28;20218;-76
2022/03/21 03:26:50;;;;;;;16.67;11.40;;;;;;;4.31;50.12;103462.41;5046709;28;20210;-76
2022/03/21 03:29:16;;;;;;;16.40;11.03;;;;;;;4.21;51.10;103463.28;5046611;28;20277;-76
2022/03/21 03:31:41;;;;;;;18.50;11.23;;;;;;;4.15;50.82;103464.38;5050965;28;20193;-76
2022/03/21 03:34:07;;;;;;;15.77;10.97;;;;;;;4.14;51.26;103462.63;5037299;28;20803;-76
2022/03/21 03:36:32;;;;;;;13.03;10.43;;;;;;;4.19;50.65;103456.28;5047869;28;20192;-76
2022/03/21 03:38:58;;;;;;;15.73;11.03;;;;;;;4.21;50.58;103455.66;5044610;28;20201;-76
2022/03/21 03:41:23;;;;;;;15.87;11.07;;;;;;;4.19;51.03;103451.22;5039602;28;20194;-76
2022/03/21 03:43:49;;;;;;;16.10;10.97;;;;;;;4.21;50.65;103449.69;5050620;28;20224;-76
2022/03/21 03:46:16;;;;;;;16.53;11.57;;;;;;;4.15;51.32;103460.19;5050304;28;20246;-76
2022/03/21 03:48:43;;;;;;;17.43;11.30;;;;;;;4.13;51.28;103466.78;5047606;28;20185;-76
2022/03/21 03:51:13;;;;;;;18.73;11.20;;;;;;;4.15;50.73;103469.44;5048901;28;20195;-76
2022/03/21 03:53:39;;;;;;;18.23;11.00;;;;;;;4.05;51.37;103470.28;5050120;28;20292;-76
2022/03/21 03:56:06;;;;;;;17.43;11.00;;;;;;;4.16;50.17;103472.13;5032174;28;20199;-76
2022/03/21 03:58:36;;;;;;;17.33;11.90;;;;;;;4.17;50.65;103465.38;5013128;28;20229;-76
2022/03/21 04:01:04;;;;;;;15.13;11.30;;;;;;;4.14;51.22;103471.09;5041046;28;20189;-76
2022/03/21 04:03:45;;;;;;;17.63;10.77;;;;;;;4.17;50.06;103466.28;5048445;28;20190;-76
2022/03/21 04:06:11;;;;;;;16.17;11.67;;;;;;;4.16;50.58;103466.16;5048339;28;20216;-76
2022/03/21 04:08:37;;;;;;;16.20;11.13;;;;;;;4.16;50.99;103472.13;5047777;28;20178;-76
2022/03/21 04:11:02;;;;;;;16.13;11.03;;;;;;;4.15;50.50;103465.25;5058446;28;20190;-76
2022/03/21 04:13:28;;;;;;;16.73;11.33;;;;;;;4.18;49.85;103464.66;5050228;28;20193;-76
2022/03/21 04:15:53;;;;;;;16.83;10.97;;;;;;;4.12;50.63;103465.00;5049120;28;20233;-76
2022/03/21 04:18:20;;;;;;;15.87;11.60;;;;;;;4.16;49.80;103462.00;5048636;28;20189;-76
2022/03/21 04:20:45;;;;;;;16.20;11.30;;;;;;;4.16;50.37;103467.06;5046395;28;20244;-75
2022/03/21 04:23:11;;;;;;;17.73;11.07;;;;;;;4.14;50.45;103458.41;5034870;28;20201;-75
2022/03/21 04:25:37;;;;;;;13.83;10.53;;;;;;;4.14;51.18;103455.00;5049281;28;20216;-76
2022/03/21 04:28:12;;;;;;;17.90;11.23;;;;;;;4.09;51.24;103449.53;5049789;28;20193;-76
2022/03/21 04:30:38;;;;;;;15.07;11.93;;;;;;;4.09;51.17;103453.72;5037072;28;20186;-76
2022/03/21 04:33:04;;;;;;;17.60;11.70;;;;;;;4.10;50.92;103458.91;5035667;28;20794;-76
2022/03/21 04:35:30;;;;;;;19.73;11.57;;;;;;;4.07;50.05;103460.28;5048352;28;20210;-76
2022/03/21 04:37:55;;;;;;;19.57;12.73;;;;;;;4.06;49.99;103461.03;5030919;28;20632;-75
2022/03/21 04:40:22;;;;;;;13.43;10.97;;;;;;;4.05;50.01;103460.16;5036162;28;20215;-76
2022/03/21 04:42:48;;;;;;;16.30;10.97;;;;;;;4.05;50.70;103469.41;5049237;28;20221;-76
2022/03/21 04:45:14;;;;;;;16.23;11.23;;;;;;;3.99;51.02;103468.84;5046768;28;20248;-76
2022/03/21 04:47:40;;;;;;;16.23;11.40;;;;;;;3.98;50.80;103470.53;5049741;28;20579;-76
2022/03/21 04:50:07;;;;;;;15.63;11.10;;;;;;;3.94;50.70;103471.00;5048465;28;20216;-76
2022/03/21 04:52:33;;;;;;;15.47;11.50;;;;;;;3.89;51.07;103477.31;5031739;28;20716;-76
2022/03/21 04:55:00;;;;;;;14.83;11.27;;;;;;;3.93;50.80;103478.47;5029736;28;20709;-76
2022/03/21 04:57:27;;;;;;;17.30;11.20;;;;;;;3.94;51.52;103467.56;5036333;28;20350;-76
2022/03/21 04:59:53;;;;;;;16.87;11.77;;;;;;;3.89;51.20;103458.69;5049329;28;20186;-76
2022/03/21 05:02:19;;;;;;;15.67;11.67;;;;;;;3.94;50.92;103454.91;5047562;28;20603;-76
2022/03/21 05:04:44;;;;;;;17.43;11.13;;;;;;;3.92;51.28;103459.81;5049035;28;20212;-76
2022/03/21 05:07:16;;;;;;;16.40;10.97;;;;;;;3.89;50.73;103464.66;5049570;28;20166;-76
2022/03/21 05:09:45;;;;;;;15.83;11.43;;;;;;;3.90;51.08;103463.88;5051314;28;20192;-76
2022/03/21 05:12:11;;;;;;;15.53;10.63;;;;;;;3.90;51.04;103473.13;5060846;28;20264;-76
2022/03/21 05:14:37;;;;;;;16.17;11.33;;;;;;;3.91;50.09;103480.00;5069279;28;20211;-76
2022/03/21 05:17:02;;;;;;;16.00;11.13;;;;;;;3.94;49.95;103480.25;5069357;28;20555;-76
2022/03/21 05:19:35;;;;;;;16.57;11.43;;;;;;;3.90;50.74;103486.69;5061552;28;20192;-76
2022/03/21 05:22:06;;;;;;;15.60;11.27;;;;;;;3.87;50.72;103493.13;5049118;28;20243;-76
2022/03/21 05:32:47;;;;;;;15.33;10.60;;;;;;;3.85;50.87;103499.69;5053186;28;20667;-76
2022/03/21 05:37:56;;;;;;;15.43;11.77;;;;;;;3.83;50.40;103503.75;5053229;28;20264;-75
2022/03/21 05:40:41;;;;;;;16.93;11.93;;;;;;;3.82;51.26;103501.97;5052997;28;20272;-75
2022/03/21 05:43:06;;;;;;;18.63;11.83;;;;;;;3.76;51.35;103503.94;5052901;28;20194;-76
2022/03/21 05:45:32;;;;;;;17.30;11.90;;;;;;;3.80;52.06;103504.38;5052780;28;20210;-76
2022/03/21 05:50:41;;;;;;;16.40;12.30;;;;;;;3.81;51.72;103505.25;5051550;28;20185;-76
2022/03/21 05:53:08;;;;;;;17.27;10.57;;;;;;;3.84;52.34;103506.44;5051499;28;20204;-76
2022/03/21 05:55:34;;;;;;;14.73;10.80;;;;;;;3.82;51.75;103504.50;5051613;28;20244;-76
2022/03/21 05:58:00;;;;;;;16.37;11.63;;;;;;;3.83;51.92;103504.66;5052928;28;20273;-76
2022/03/21 06:00:26;;;;;;;17.27;11.83;;;;;;;3.90;51.31;103501.88;5034779;28;20702;-76
2022/03/21 06:02:52;;;;;;;17.03;12.10;;;;;;;3.99;51.90;103505.25;5058980;28;20190;-76
2022/03/21 06:05:19;;;;;;;17.60;11.33;;;;;;;4.12;51.55;103494.53;5069507;28;20212;-76
2022/03/21 06:07:45;;;;;;;14.57;11.30;;;;;;;4.21;51.20;103505.47;5072916;28;20188;-76
2022/03/21 06:10:11;;;;;;;18.20;11.73;;;;;;;4.30;50.16;103504.63;5064340;28;20205;-76
2022/03/21 06:12:36;;;;;;;16.97;11.10;;;;;;;4.38;50.07;103512.91;5062724;28;20193;-76
2022/03/21 06:15:02;;;;;;;17.70;12.03;;;;;;;4.49;50.25;103519.78;5072400;28;20213;-76
2022/03/21 06:17:28;;;;;;;14.47;10.60;;;;;;;4.50;49.72;103514.84;5071208;28;20201;-76
2022/03/21 06:19:53;;;;;;;16.73;11.17;;;;;;;4.63;49.85;103514.25;5071216;28;20204;-76
2022/03/21 06:22:18;;;;;;;16.73;11.77;;;;;;;4.73;49.77;103519.34;5072276;28;20185;-76
2022/03/21 06:24:44;;;;;;;20.03;11.77;;;;;;;4.82;48.84;103517.59;5046336;28;20210;-76
2022/03/21 06:27:09;;;;;;;15.33;11.67;;;;;;;4.93;48.76;103519.41;5031148;28;20193;-76
2022/03/21 06:29:34;;;;;;;16.47;11.43;;;;;;;4.95;48.94;103513.72;5030901;28;20236;-76
2022/03/21 06:32:00;;;;;;;16.73;11.23;;;;;;;5.09;48.21;103510.69;5032162;28;20191;-76
2022/03/21 06:34:25;;;;;;;16.07;11.23;;;;;;;5.15;48.26;103523.00;5032173;28;20249;-76
2022/03/21 06:36:52;;;;;;;16.27;11.67;;;;;;;4.98;48.74;103531.72;5032307;28;20212;-76
2022/03/21 06:39:18;;;;;;;16.60;11.83;;;;;;;5.01;48.91;103524.38;5032280;28;20666;-76
2022/03/21 06:41:44;;;;;;;14.07;10.97;;;;;;;5.08;48.70;103531.75;5030665;28;20262;-76
2022/03/21 06:44:09;;;;;;;15.73;12.00;;;;;;;5.15;47.92;103521.34;5032011;28;20187;-76
2022/03/21 06:46:34;;;;;;;16.07;11.33;;;;;;;5.33;47.82;103517.78;5031952;28;20246;-76
2022/03/21 06:49:00;;;;;;;17.50;13.10;;;;;;;5.34;47.93;103524.66;5032109;28;20885;-75
2022/03/21 06:51:25;;;;;;;13.90;11.03;;;;;;;5.23;47.80;103530.50;5032093;28;20183;-75
2022/03/21 06:53:51;;;;;;;14.93;11.30;;;;;;;5.54;47.27;103526.31;5032375;28;20660;-76
2022/03/21 06:56:16;;;;;;;16.50;11.40;;;;;;;5.61;47.37;103529.47;5039369;28;20209;-76
2022/03/21 06:58:41;;;;;;;16.47;12.07;;;;;;;5.86;46.38;103530.75;5051851;28;20659;-75
2022/03/21 07:01:07;;;;;;;16.10;11.83;;;;;;;6.02;46.92;103528.69;5053249;28;20587;-74
2022/03/21 07:03:32;;;;;;;15.87;12.00;;;;;;;5.78;46.09;103534.28;5064231;28;20662;-73
2022/03/21 07:05:59;;;;;;;14.83;11.63;;;;;;;5.88;46.92;103541.03;5070752;28;20723;-73
2022/03/21 07:08:24;;;;;;;16.00;11.37;;;;;;;6.00;46.52;103542.03;5033179;28;20229;-72
2022/03/21 07:10:49;;;;;;;16.80;11.27;;;;;;;5.99;46.55;103543.66;5059233;28;20248;-73
2022/03/21 07:13:15;;;;;;;15.90;11.80;;;;;;;6.02;46.24;103540.50;5039651;28;20217;-74
2022/03/21 07:15:41;;;;;;;14.80;11.67;;;;;;;6.02;45.70;103528.69;5031984;28;20725;-74
2022/03/21 07:18:08;;;;;;;17.07;12.50;;;;;;;6.32;45.97;103530.25;5038127;28;20224;-74
2022/03/21 07:20:34;;;;;;;14.13;11.47;;;;;;;6.28;45.56;103528.22;5039587;28;20273;-75
2022/03/21 07:23:00;;;;;;;15.53;11.93;;;;;;;6.57;45.90;103527.19;5040236;28;20209;-74
2022/03/21 07:25:25;;;;;;;16.60;12.83;;;;;;;6.83;45.42;103531.78;5036697;28;20218;-73
2022/03/21 07:27:52;;;;;;;16.20;11.53;;;;;;;6.79;45.70;103530.66;5029765;28;20224;-74
2022/03/21 07:30:18;;;;;;;17.40;12.07;;;;;;;7.05;44.86;103532.66;5031157;28;20216;-74
2022/03/21 07:32:44;;;;;;;15.77;11.57;;;;;;;7.16;44.20;103540.34;5043957;28;20185;-75
2022/03/21 07:35:10;;;;;;;16.13;11.70;;;;;;;7.04;44.16;103538.53;5049712;28;20698;-75
2022/03/21 07:37:50;;;;;;;15.53;11.50;;;;;;;7.27;44.21;103549.69;5049752;28;20201;-74
2022/03/21 07:40:17;;;;;;;17.47;13.03;;;;;;;7.36;43.85;103539.28;5051461;28;20630;-73
2022/03/21 07:42:44;;;;;;;16.80;12.50;;;;;;;7.56;43.90;103541.69;5050384;28;20185;-74
2022/03/21 07:47:58;;;;;;;15.80;11.40;;;;;;;7.79;43.57;103537.50;5050777;28;20808;-74
2022/03/21 07:50:25;;;;;;;14.70;11.43;;;;;;;8.23;43.08;103540.75;5050906;28;20708;-73
2022/03/21 07:52:51;;;;;;;15.03;12.50;;;;;;;8.04;42.55;103540.19;5050125;28;20228;-74
2022/03/21 07:55:17;;;;;;;15.40;11.20;;;;;;;8.47;41.55;103540.00;5050547;28;20286;-74
2022/03/21 07:57:42;;;;;;;16.40;12.77;;;;;;;8.73;41.16;103543.59;5050493;28;20678;-74
2022/03/21 08:00:13;;;;;;;15.87;12.40;;;;;;;8.93;40.79;103539.84;5050398;28;20190;-75
2022/03/21 08:02:39;;;;;;;16.80;12.57;;;;;;;8.85;41.09;103534.22;5061292;28;20563;-75
2022/03/21 08:05:05;;;;;;;15.77;12.13;;;;;;;8.96;40.02;103542.63;5052395;28;20287;-75
2022/03/21 08:07:34;;;;;;;15.60;11.70;;;;;;;9.41;40.07;103531.31;5030410;28;20274;-75
2022/03/21 08:10:00;;;;;;;16.33;12.37;;;;;;;9.69;39.20;103526.34;5035062;28;20190;-75
2022/03/21 08:12:25;;;;;;;17.83;12.60;;;;;;;9.81;38.17;103533.16;5028637;28;20194;-75
2022/03/21 08:14:53;;;;;;;16.27;11.17;;;;;;;9.93;38.33;103536.53;5030738;28;20257;-75
2022/03/21 08:17:19;;;;;;;15.87;11.50;;;;;;;9.73;38.82;103529.19;5050179;28;20647;-75
2022/03/21 08:19:45;;;;;;;15.00;12.23;;;;;;;9.75;38.34;103526.75;5050238;28;20285;-74
2022/03/21 08:22:11;;;;;;;15.37;12.00;;;;;;;10.14;37.75;103527.69;5049857;28;20193;-75
2022/03/21 08:24:36;;;;;;;16.80;11.87;;;;;;;10.05;37.57;103529.66;5049891;28;20209;-75
2022/03/21 08:27:05;;;;;;;15.87;12.10;;;;;;;9.85;37.26;103532.56;5049912;28;20584;-75
2022/03/21 08:29:31;;;;;;;13.60;11.60;;;;;;;10.53;36.78;103527.66;5048559;28;20196;-75
2022/03/21 08:31:57;;;;;;;13.67;11.50;;;;;;;10.34;36.29;103519.63;5049816;28;20247;-75
2022/03/21 08:34:22;;;;;;;15.77;12.00;;;;;;;10.52;36.06;103528.47;5044177;28;20225;-74
2022/03/21 08:36:48;;;;;;;13.90;11.03;;;;;;;10.21;36.21;103519.63;5044275;28;20188;-74
2022/03/21 08:39:13;;;;;;;14.40;11.50;;;;;;;10.91;35.68;103523.22;5049507;28;20193;-75
2022/03/21 08:41:38;;;;;;;15.30;11.77;;;;;;;11.28;35.47;103521.16;5030516;28;20194;-75
2022/03/21 08:44:04;;;;;;;14.50;11.93;;;;;;;11.22;34.51;103514.00;5028014;28;20297;-75
2022/03/21 08:46:30;;;;;;;15.30;12.43;;;;;;;11.47;34.67;103508.66;5029266;28;20253;-75
2022/03/21 08:51:39;;;;;;;16.37;12.00;;;;;;;11.25;34.78;103514.19;5027826;28;20706;-76
2022/03/21 08:54:07;;;;;;;13.67;11.80;;;;;;;11.55;34.21;103505.72;5028003;28;20198;-74
2022/03/21 08:56:33;;;;;;;17.03;12.43;;;;;;;12.03;34.48;103494.84;5029168;28;20202;-74
2022/03/21 08:58:58;;;;;;;16.50;11.73;;;;;;;12.19;33.08;103500.91;5027921;28;20293;-75
2022/03/21 09:01:24;;;;;;;15.17;12.83;;;;;;;11.93;33.13;103505.41;5011612;28;20290;-74
2022/03/21 09:03:51;;;;;;;15.23;11.57;;;;;;;11.84;33.56;103494.59;5027067;28;20191;-74
2022/03/21 09:06:20;;;;;;;14.30;12.23;;;;;;;12.10;33.67;103497.84;5029082;28;20218;-75
2022/03/21 09:08:46;;;;;;;15.50;12.50;;;;;;;12.54;33.09;103490.84;5035299;28;20257;-74
2022/03/21 09:11:11;;;;;;;13.97;12.20;;;;;;;12.74;32.56;103490.25;5044245;28;20268;-76
2022/03/21 09:13:36;;;;;;;15.83;12.53;;;;;;;12.33;32.78;103491.38;5049542;28;20877;-75
2022/03/21 09:16:02;;;;;;;14.63;11.90;;;;;;;12.73;32.75;103487.59;5038678;28;20711;-76
2022/03/21 09:18:27;;;;;;;16.70;12.90;;;;;;;13.45;32.01;103475.09;5049016;28;20289;-75
2022/03/21 09:20:52;;;;;;;15.00;11.70;;;;;;;13.30;31.42;103472.63;5048928;28;20189;-75
2022/03/21 09:23:18;;;;;;;13.43;11.83;;;;;;;13.39;31.67;103474.78;5045184;28;20196;-75
2022/03/21 09:25:44;;;;;;;14.57;12.47;;;;;;;13.43;31.32;103474.09;5049062;28;20300;-75
2022/03/21 09:28:09;;;;;;;13.67;11.67;;;;;;;14.06;30.72;103474.69;5049264;28;20200;-75
2022/03/21 09:30:36;;;;;;;15.20;13.43;;;;;;;13.84;30.50;103479.59;5047644;28;20654;-74
2022/03/21 09:33:02;;;;;;;14.73;12.87;;;;;;;15.16;28.65;103478.06;5047641;28;20817;-74
2022/03/21 09:35:27;;;;;;;15.70;12.70;;;;;;;18.60;25.20;103463.19;5050898;28;20206;-74
2022/03/21 09:37:53;;;;;;;14.37;12.53;;;;;;;18.38;23.78;103466.84;5056113;28;20271;-75
2022/03/21 09:40:20;;;;;;;13.70;12.30;;;;;;;21.83;22.06;103454.03;5048677;28;20194;-75
2022/03/21 09:42:46;;;;;;;13.35;11.88;;;;;;;22.65;20.32;103450.81;5048716;28;20201;-75
2022/03/21 09:45:13;;;;;;;14.82;13.25;;;;;;;22.89;19.89;103432.81;5048774;28;20209;-75
2022/03/21 09:50:31;;;;;;;15.15;12.70;;;;;;;23.12;19.74;103441.78;5048844;28;20315;-75
2022/03/21 09:52:59;;;;;;;13.33;12.03;;;;;;;21.26;20.90;103432.22;5048647;28;20193;-74
2022/03/21 09:55:24;;;;;;;15.10;13.10;;;;;;;22.09;19.91;103439.66;5047290;28;20202;-75
2022/03/21 09:57:49;;;;;;;14.63;13.23;;;;;;;21.93;20.77;103436.81;5048700;28;20669;-75
2022/03/21 10:00:15;;;;;;;14.67;13.17;;;;;;;21.83;20.66;103433.16;5049139;28;20178;-75
2022/03/21 10:02:41;;;;;;;13.52;12.13;;;;;;;24.13;18.16;103422.50;5048955;28;20638;-76
2022/03/21 10:05:07;;;;;;;14.32;12.93;;;;;;;23.67;19.27;103430.91;5048823;28;20221;-75
2022/03/21 10:07:32;;;;;;;14.48;11.95;;;;;;;25.31;18.17;103426.34;5048724;28;20194;-75
2022/03/21 10:10:06;;;;;;;14.55;12.55;;;;;;;25.81;17.90;103421.94;5029682;28;20321;-74
2022/03/21 10:12:31;;;;;;;16.83;13.80;;;;;;;25.11;18.30;103421.09;5055576;28;20273;-76
2022/03/21 10:14:59;;;;;;;14.70;12.82;;;;;;;25.51;18.24;103424.63;5047792;28;20280;-77
2022/03/21 10:17:24;;;;;;;13.63;12.43;;;;;;;26.35;17.34;103416.53;5043666;28;20317;-77
2022/03/21 10:19:52;;;;;;;14.10;12.73;;;;;;;24.70;17.99;103420.13;5052669;28;20711;-74
2022/03/21 10:22:33;;;;;;;14.48;13.00;;;;;;;25.70;17.88;103421.09;5052291;28;20182;-74
2022/03/21 10:25:06;;;;;;;14.15;12.75;;;;;;;24.88;18.26;103420.19;5052251;28;20270;-75
2022/03/21 10:27:36;;;;;;;14.57;13.07;;;;;;;24.81;17.96;103417.56;5051219;28;20182;-75
2022/03/21 10:30:15;;;;;;;14.60;13.10;;;;;;;25.29;17.66;103422.88;5037712;28;20277;-75
2022/03/21 10:32:43;;;;;;;14.90;13.32;;;;;;;24.12;18.10;103419.88;5031937;28;20293;-75
2022/03/21 10:35:15;;;;;;;13.52;12.23;;;;;;;25.16;17.63;103423.69;5032014;28;20210;-76
2022/03/21 10:37:52;;;;;;;13.70;12.40;;;;;;;25.30;16.96;103408.88;5050380;28;20913;-76
2022/03/21 10:40:30;;;;;;;13.60;12.30;;;;;;;26.75;17.26;103412.84;5034002;28;20181;-76
2022/03/21 10:43:02;;;;;;;14.57;13.20;;;;;;;27.92;15.48;103403.97;5051686;28;20194;-76
2022/03/21 10:45:36;;;;;;;13.43;12.13;;;;;;;28.44;15.65;103402.44;5051633;28;20232;-75
2022/03/21 10:48:07;;;;;;;13.82;12.43;;;;;;;25.91;16.91;103415.78;5051950;28;20191;-75
2022/03/21 10:50:35;;;;;;;13.77;12.35;;;;;;;27.95;15.69;103406.56;5050663;28;20186;-76
2022/03/21 10:53:10;;;;;;;14.70;13.20;;;;;;;25.54;16.85;103414.97;5051515;28;20189;-76
2022/03/21 10:55:36;;;;;;;14.95;13.45;;;;;;;27.91;15.97;103402.22;5050297;28;20209;-76
2022/03/21 10:58:02;;;;;;;15.25;13.75;;;;;;;26.97;16.50;103415.31;5051501;28;20178;-75
2022/03/21 11:00:28;;;;;;;14.73;13.20;;;;;;;27.49;15.71;103407.91;5050191;28;20190;-75
2022/03/21 11:02:58;;;;;;;14.68;13.38;;;;;;;27.68;15.51;103401.56;5046462;28;20190;-75
2022/03/21 11:05:26;;;;;;;13.57;12.27;;;;;;;27.47;15.92;103397.38;5031424;28;20707;-75
2022/03/21 11:07:53;;;;;;;15.07;13.55;;;;;;;26.12;16.47;103402.63;5030493;28;20660;-75
2022/03/21 11:10:21;;;;;;;14.95;13.48;;;;;;;27.62;16.00;103394.59;5055240;28;20219;-74
2022/03/21 11:12:47;;;;;;;12.93;11.73;;;;;;;27.73;15.47;103402.38;5063488;28;20723;-75
2022/03/21 11:15:13;;;;;;;15.10;13.70;;;;;;;26.95;15.85;103398.69;5071104;28;20209;-74
2022/03/21 11:17:41;;;;;;;12.87;11.43;;;;;;;25.83;16.82;103402.66;5062352;28;20244;-74
2022/03/21 11:20:08;;;;;;;14.47;12.97;;;;;;;25.73;17.17;103400.94;5070020;28;20193;-75
2022/03/21 11:22:34;;;;;;;13.77;12.43;;;;;;;24.03;18.12;103410.22;5058774;28;20189;-75
2022/03/21 11:25:02;;;;;;;13.80;12.40;;;;;;;24.61;18.10;103404.38;5049604;28;20213;-75
2022/03/21 11:28:04;;;;;;;14.77;12.83;;;;;;;22.63;19.62;103412.47;5050290;28;20186;-75
2022/03/21 11:31:06;;;;;;;14.43;12.93;;;;;;;21.84;20.90;103403.59;5032598;28;20189;-74
2022/03/21 11:33:45;;;;;;;14.33;12.97;;;;;;;21.42;21.95;103415.09;5030577;28;20186;-75
2022/03/21 11:36:12;;;;;;;14.87;13.37;;;;;;;20.99;22.17;103405.66;5030848;28;20209;-75
2022/03/21 11:38:47;;;;;;;16.17;12.47;;;;;;;21.71;22.11;103403.41;5051360;28;20674;-75